Time;durP1;ratioP1;P1;durP2;ratioP2;P2;SDS_P1;SDS_P2;PMS_P1;PMS_P2;Temp;Humidity;BMP_temperature;BMP_pressure;BME280_temperature;BME280_humidity;BME280_pressure;Samples;Min_cycle;Max_cycle;Signal;HPM_P1;HPM_P2
2022/02/19 00:00:07;;;;;;;7.90;2.03;;;;;;;11.37;40.73;96915.97;5014058;28;20179;-71
2022/02/19 00:02:33;;;;;;;8.67;1.80;;;;;;;11.41;40.60;96919.09;5031485;28;20417;-70
2022/02/19 00:04:58;;;;;;;4.80;1.83;;;;;;;11.47;40.59;96926.28;5013599;28;20565;-72
2022/02/19 00:07:24;;;;;;;8.10;1.93;;;;;;;11.47;40.13;96931.53;5014111;28;20237;-70
2022/02/19 00:09:49;;;;;;;10.53;2.10;;;;;;;11.35;40.17;96931.06;5031461;28;20180;-71
2022/02/19 00:12:15;;;;;;;4.13;1.37;;;;;;;11.27;40.25;96935.47;5031781;28;20183;-72
2022/02/19 00:14:40;;;;;;;8.77;1.50;;;;;;;11.34;40.62;96939.91;5016606;28;20306;-71
2022/02/19 00:17:06;;;;;;;7.50;1.57;;;;;;;11.26;39.96;96947.78;5011667;28;20212;-73
2022/02/19 00:19:31;;;;;;;8.93;1.70;;;;;;;11.29;39.58;96942.19;5011738;28;20177;-71
2022/02/19 00:21:58;;;;;;;9.60;1.60;;;;;;;11.30;39.52;96956.97;5020089;28;20180;-70
2022/02/19 00:24:23;;;;;;;8.33;1.63;;;;;;;11.16;39.41;96952.34;5029133;28;20212;-70
2022/02/19 00:26:49;;;;;;;5.87;1.67;;;;;;;11.19;39.55;96947.63;5011614;28;20458;-70
2022/02/19 00:29:14;;;;;;;4.67;1.10;;;;;;;11.21;39.64;96950.06;4994287;28;20228;-71
2022/02/19 00:31:40;;;;;;;9.03;1.50;;;;;;;11.22;39.47;96965.63;5011551;28;20215;-70
2022/02/19 00:34:06;;;;;;;6.37;1.63;;;;;;;11.33;39.55;96958.47;4993943;28;20253;-71
2022/02/19 00:36:32;;;;;;;7.23;1.93;;;;;;;11.29;39.26;96976.31;4994187;28;20203;-70
2022/02/19 00:38:57;;;;;;;8.00;1.57;;;;;;;11.07;39.08;96985.63;5011779;28;20177;-70
2022/02/19 00:41:23;;;;;;;6.17;1.63;;;;;;;11.18;39.73;96993.19;5011293;28;20268;-71
2022/02/19 00:43:50;;;;;;;5.13;1.80;;;;;;;11.16;39.45;96979.41;5009353;28;20204;-70
2022/02/19 00:46:15;;;;;;;6.33;1.30;;;;;;;11.10;38.99;96985.28;4993334;28;20196;-71
2022/02/19 00:48:41;;;;;;;7.73;1.97;;;;;;;11.20;38.96;96991.22;5011588;28;20478;-70
2022/02/19 00:51:06;;;;;;;9.50;1.87;;;;;;;10.96;39.25;96994.59;5019738;28;20187;-70
2022/02/19 00:53:32;;;;;;;7.07;1.93;;;;;;;11.02;38.96;97003.63;5022962;28;20314;-71
2022/02/19 00:55:57;;;;;;;7.20;1.43;;;;;;;10.90;38.83;97009.19;5030695;28;20655;-70
2022/02/19 00:58:23;;;;;;;10.33;1.60;;;;;;;10.92;38.75;96998.53;5031917;28;20265;-70
2022/02/19 01:00:48;;;;;;;4.60;1.30;;;;;;;10.97;38.65;97006.75;5034658;28;20572;-70
2022/02/19 01:03:14;;;;;;;11.10;1.90;;;;;;;10.72;38.90;97016.31;5034676;28;20182;-71
2022/02/19 01:05:40;;;;;;;8.60;2.30;;;;;;;10.96;38.84;97017.41;5034252;28;20203;-71
2022/02/19 01:08:06;;;;;;;12.80;1.50;;;;;;;10.90;38.40;97021.44;5034649;28;20171;-70
2022/02/19 01:10:31;;;;;;;4.47;1.77;;;;;;;11.02;38.68;97025.44;5016878;28;20564;-70
2022/02/19 01:12:57;;;;;;;5.50;1.50;;;;;;;11.03;38.03;97021.81;5033927;28;20445;-70
2022/02/19 01:15:23;;;;;;;5.17;1.33;;;;;;;10.88;38.67;97029.47;5014192;28;20199;-71
2022/02/19 01:17:49;;;;;;;8.97;1.60;;;;;;;11.01;38.45;97026.44;5014862;28;20176;-70
2022/02/19 01:20:14;;;;;;;3.63;1.47;;;;;;;11.04;38.32;97036.56;5015390;28;20430;-70
2022/02/19 01:22:42;;;;;;;10.03;1.67;;;;;;;10.89;38.52;97039.00;5025948;28;20631;-70
2022/02/19 01:25:09;;;;;;;7.73;1.83;;;;;;;10.84;38.40;97054.38;5033936;28;20668;-70
2022/02/19 01:27:35;;;;;;;8.50;1.70;;;;;;;10.96;38.44;97043.63;5034134;28;20425;-70
2022/02/19 01:30:00;;;;;;;3.17;1.60;;;;;;;10.85;38.41;97040.28;5034417;28;20425;-70
2022/02/19 01:32:26;;;;;;;6.80;1.73;;;;;;;10.85;38.69;97045.53;5034221;28;20179;-70
2022/02/19 01:34:51;;;;;;;14.00;1.90;;;;;;;10.94;38.54;97042.97;5033802;28;20238;-70
2022/02/19 01:37:17;;;;;;;6.10;1.80;;;;;;;11.05;38.45;97061.03;5034079;28;20640;-70
2022/02/19 01:39:44;;;;;;;11.40;1.83;;;;;;;10.83;37.58;97058.00;5034111;28;20185;-70
2022/02/19 01:42:10;;;;;;;5.27;1.40;;;;;;;10.95;37.21;97065.56;5034036;28;20178;-70
2022/02/19 01:44:41;;;;;;;6.20;1.60;;;;;;;10.98;37.54;97070.47;5033402;28;20446;-70
2022/02/19 01:47:07;;;;;;;7.50;1.47;;;;;;;10.84;37.13;97070.09;5033964;28;20191;-71
2022/02/19 01:49:33;;;;;;;7.60;1.73;;;;;;;10.81;37.27;97066.97;5032975;28;20426;-71
2022/02/19 01:51:58;;;;;;;7.03;1.33;;;;;;;10.82;37.67;97060.75;5022229;28;20263;-70
2022/02/19 01:54:24;;;;;;;4.90;1.30;;;;;;;10.94;37.51;97069.97;5032613;28;20514;-71
2022/02/19 01:56:49;;;;;;;8.33;1.80;;;;;;;10.84;37.59;97064.84;5033463;28;20195;-70
2022/02/19 01:59:15;;;;;;;5.17;1.70;;;;;;;10.90;37.59;97059.00;5033666;28;20168;-70
2022/02/19 02:01:40;;;;;;;7.93;2.00;;;;;;;10.89;37.68;97083.56;5033694;28;20182;-71
2022/02/19 02:04:06;;;;;;;7.10;2.00;;;;;;;10.72;37.12;97071.34;5033503;28;20196;-71
2022/02/19 02:06:31;;;;;;;4.60;1.43;;;;;;;10.66;37.19;97059.69;5033285;28;20203;-70
2022/02/19 02:08:59;;;;;;;6.77;1.70;;;;;;;10.80;37.23;97065.34;5033255;28;20186;-71
2022/02/19 02:11:25;;;;;;;7.37;1.60;;;;;;;10.80;37.26;97078.44;5015642;28;20568;-71
2022/02/19 02:13:50;;;;;;;6.10;1.60;;;;;;;10.71;37.65;97085.47;5025371;28;20412;-70
2022/02/19 02:16:16;;;;;;;8.13;1.60;;;;;;;10.77;37.42;97074.34;5013316;28;20225;-69
2022/02/19 02:18:45;;;;;;;13.37;1.90;;;;;;;10.81;37.38;97099.28;5013508;28;20508;-70
2022/02/19 02:21:11;;;;;;;5.90;1.63;;;;;;;10.83;37.36;97097.31;5021422;28;20183;-70
2022/02/19 02:23:36;;;;;;;7.03;1.90;;;;;;;10.73;37.02;97096.59;5025565;28;20532;-71
2022/02/19 02:26:02;;;;;;;5.07;1.47;;;;;;;10.68;37.25;97098.88;5032668;28;20671;-70
2022/02/19 02:28:28;;;;;;;9.67;2.00;;;;;;;10.68;37.47;97111.97;5033302;28;20185;-70
2022/02/19 02:30:54;;;;;;;6.73;1.60;;;;;;;10.80;36.84;97099.41;5033044;28;20420;-70
2022/02/19 02:33:21;;;;;;;6.97;1.53;;;;;;;10.71;36.96;97093.31;5015527;28;20178;-70
2022/02/19 02:35:51;;;;;;;4.13;1.23;;;;;;;10.76;37.05;97101.53;5032649;28;20206;-69
2022/02/19 02:38:17;;;;;;;9.13;1.33;;;;;;;10.66;36.62;97101.63;5032973;28;20483;-70
2022/02/19 02:40:44;;;;;;;4.90;1.20;;;;;;;10.75;36.69;97113.00;5032700;28;20424;-70
2022/02/19 02:43:09;;;;;;;9.53;1.40;;;;;;;10.65;36.74;97109.66;5032757;28;20430;-69
2022/02/19 02:45:35;;;;;;;4.10;1.73;;;;;;;10.63;36.66;97119.47;5029421;28;20469;-69
2022/02/19 02:48:00;;;;;;;9.17;2.30;;;;;;;10.58;36.59;97122.56;5012930;28;20547;-69
2022/02/19 02:50:26;;;;;;;7.53;1.73;;;;;;;10.54;36.89;97122.06;5015669;28;20215;-69
2022/02/19 02:52:51;;;;;;;6.07;1.73;;;;;;;10.60;36.79;97131.91;5024380;28;20181;-70
2022/02/19 02:55:17;;;;;;;7.17;1.43;;;;;;;10.48;36.55;97138.38;5032127;28;20230;-70
2022/02/19 02:57:42;;;;;;;7.57;1.73;;;;;;;10.48;36.83;97148.84;5032533;28;20222;-70
2022/02/19 03:00:11;;;;;;;10.57;1.50;;;;;;;10.34;36.68;97141.50;5014845;28;20329;-70
2022/02/19 03:02:37;;;;;;;14.53;2.20;;;;;;;10.35;36.98;97151.00;5032713;28;20174;-70
2022/02/19 03:05:07;;;;;;;7.40;1.70;;;;;;;10.44;37.18;97143.09;5032104;28;21085;-70
2022/02/19 03:07:34;;;;;;;6.40;1.70;;;;;;;10.38;36.74;97175.16;5032302;28;20425;-70
2022/02/19 03:10:00;;;;;;;7.10;1.83;;;;;;;9.99;36.99;97171.03;5032148;28;20476;-69
2022/02/19 03:12:25;;;;;;;11.27;2.40;;;;;;;10.20;37.02;97163.84;5032276;28;20427;-69
2022/02/19 03:14:51;;;;;;;7.03;1.50;;;;;;;10.22;36.82;97165.31;5015742;28;20261;-70
2022/02/19 03:17:17;;;;;;;8.17;1.90;;;;;;;10.31;37.05;97168.84;5012633;28;20259;-69
2022/02/19 03:19:42;;;;;;;5.93;1.77;;;;;;;10.26;37.30;97179.78;5012480;28;20466;-69
2022/02/19 03:22:08;;;;;;;7.53;2.20;;;;;;;10.24;37.14;97191.38;5019873;28;20178;-70
2022/02/19 03:24:33;;;;;;;5.33;1.60;;;;;;;10.28;37.06;97185.69;5031602;28;20198;-69
2022/02/19 03:27:00;;;;;;;8.67;1.93;;;;;;;10.25;37.06;97179.94;5032044;28;20289;-69
2022/02/19 03:29:26;;;;;;;3.53;1.60;;;;;;;10.24;36.99;97194.00;5014747;28;20205;-70
2022/02/19 03:31:51;;;;;;;5.10;2.00;;;;;;;10.23;37.35;97193.16;5032115;28;20452;-70
2022/02/19 03:34:16;;;;;;;6.73;1.77;;;;;;;9.93;37.69;97192.56;5032049;28;20171;-69
2022/02/19 03:36:43;;;;;;;12.00;2.03;;;;;;;10.01;37.36;97196.22;5031711;28;20256;-69
2022/02/19 03:39:09;;;;;;;5.47;1.77;;;;;;;10.13;37.59;97208.13;5032088;28;20182;-70
2022/02/19 03:41:35;;;;;;;4.90;1.40;;;;;;;10.19;37.27;97201.47;5031976;28;20515;-70
2022/02/19 03:44:01;;;;;;;8.57;2.00;;;;;;;10.09;37.45;97219.88;5031896;28;20492;-69
2022/02/19 03:46:27;;;;;;;9.53;1.77;;;;;;;10.11;37.84;97224.00;5031583;28;20442;-69
2022/02/19 03:48:52;;;;;;;6.93;1.70;;;;;;;9.95;37.39;97216.81;5032007;28;20644;-69
2022/02/19 03:51:18;;;;;;;3.83;1.43;;;;;;;9.94;37.90;97230.88;5024605;28;20418;-68
2022/02/19 03:53:43;;;;;;;8.97;2.00;;;;;;;9.96;37.77;97215.81;5024946;28;20277;-69
2022/02/19 03:56:09;;;;;;;9.47;1.50;;;;;;;9.82;37.42;97227.63;5031501;28;20199;-67
2022/02/19 03:58:34;;;;;;;10.23;2.30;;;;;;;9.91;38.35;97202.38;5014025;28;20208;-70
2022/02/19 04:01:01;;;;;;;11.53;1.77;;;;;;;9.99;38.13;97239.09;5031821;28;20179;-69
2022/02/19 04:03:27;;;;;;;6.10;1.90;;;;;;;10.09;38.00;97238.19;5031551;28;20189;-69
2022/02/19 04:05:52;;;;;;;7.93;1.73;;;;;;;10.12;37.69;97253.63;5031119;28;20437;-69
2022/02/19 04:08:18;;;;;;;11.23;1.80;;;;;;;9.96;37.68;97257.72;5031411;28;20173;-70
2022/02/19 04:10:43;;;;;;;9.70;1.47;;;;;;;9.97;37.37;97266.41;5031353;28;20179;-70
2022/02/19 04:13:09;;;;;;;4.87;1.50;;;;;;;10.02;37.00;97284.28;5016881;28;20178;-69
2022/02/19 04:15:34;;;;;;;2.90;1.40;;;;;;;10.09;36.70;97291.41;5011562;28;20192;-69
2022/02/19 04:18:00;;;;;;;6.73;1.60;;;;;;;10.11;36.48;97283.41;5011819;28;20172;-70
2022/02/19 04:20:25;;;;;;;9.23;1.40;;;;;;;10.06;36.38;97291.69;5013966;28;20178;-70
2022/02/19 04:22:51;;;;;;;8.23;2.30;;;;;;;10.11;36.10;97291.25;5022962;28;20173;-69
2022/02/19 04:25:17;;;;;;;7.63;1.50;;;;;;;9.95;36.15;97292.75;5026844;28;20594;-69
2022/02/19 04:27:42;;;;;;;6.40;1.40;;;;;;;9.94;36.74;97311.19;5011710;28;20421;-70
2022/02/19 04:30:08;;;;;;;7.30;1.70;;;;;;;9.78;36.46;97322.31;5019640;28;20594;-69
2022/02/19 04:32:34;;;;;;;8.43;1.40;;;;;;;9.81;36.72;97316.78;5024624;28;20174;-70
2022/02/19 04:34:59;;;;;;;7.40;1.40;;;;;;;9.87;36.60;97312.75;5034906;28;20510;-70
2022/02/19 04:37:25;;;;;;;6.10;1.60;;;;;;;9.74;37.03;97306.06;5023993;28;20311;-70
2022/02/19 04:39:51;;;;;;;12.60;1.30;;;;;;;9.83;37.00;97304.34;5015398;28;20187;-70
2022/02/19 04:42:17;;;;;;;9.40;1.40;;;;;;;9.78;37.25;97314.44;5015569;28;20179;-70
2022/02/19 04:44:42;;;;;;;7.70;1.50;;;;;;;9.78;36.67;97317.06;5015104;28;20484;-70
2022/02/19 04:47:07;;;;;;;7.43;2.27;;;;;;;9.91;36.96;97322.78;4997915;28;20193;-70
2022/02/19 04:49:33;;;;;;;9.33;2.40;;;;;;;9.83;37.04;97333.16;5015239;28;20175;-70
2022/02/19 04:51:58;;;;;;;8.30;1.60;;;;;;;9.80;37.32;97329.03;5023282;28;20177;-69
2022/02/19 04:54:24;;;;;;;3.30;1.10;;;;;;;9.82;36.49;97331.53;5033505;28;20182;-70
2022/02/19 04:56:49;;;;;;;3.60;1.70;;;;;;;9.93;36.63;97338.34;5034646;28;20203;-70
2022/02/19 04:59:15;;;;;;;6.80;1.67;;;;;;;9.73;36.68;97340.22;5035105;28;20262;-70
2022/02/19 05:01:40;;;;;;;3.67;1.20;;;;;;;9.73;36.70;97329.75;5016997;28;20265;-70
2022/02/19 05:04:06;;;;;;;6.47;1.33;;;;;;;9.70;36.67;97343.16;5017007;28;20241;-70
2022/02/19 05:06:32;;;;;;;6.20;1.67;;;;;;;9.66;37.06;97348.66;5034337;28;20283;-70
2022/02/19 05:08:58;;;;;;;6.17;1.70;;;;;;;9.52;36.40;97356.97;5034598;28;20177;-70
2022/02/19 05:11:24;;;;;;;8.77;1.60;;;;;;;9.61;36.87;97357.91;5034535;28;20424;-70
2022/02/19 05:13:50;;;;;;;8.93;1.60;;;;;;;9.51;36.76;97376.25;5026990;28;20769;-69
2022/02/19 05:16:15;;;;;;;3.90;1.27;;;;;;;9.45;36.46;97368.97;5014675;28;20206;-70
2022/02/19 05:18:41;;;;;;;6.80;1.87;;;;;;;9.56;36.88;97363.56;5015112;28;20178;-70
2022/02/19 05:21:06;;;;;;;5.90;1.90;;;;;;;9.61;36.60;97371.81;5022767;28;20266;-70
2022/02/19 05:23:32;;;;;;;4.57;1.20;;;;;;;9.59;36.58;97384.19;5025852;28;20203;-70
2022/02/19 05:25:59;;;;;;;7.43;1.67;;;;;;;9.30;37.11;97395.56;5034343;28;20201;-70
2022/02/19 05:28:24;;;;;;;4.73;1.83;;;;;;;9.30;36.77;97395.56;5034528;28;20176;-70
2022/02/19 05:30:50;;;;;;;10.37;1.90;;;;;;;9.44;37.03;97401.31;5034360;28;20418;-70
2022/02/19 05:33:15;;;;;;;4.17;1.70;;;;;;;9.59;36.69;97402.50;5034449;28;20516;-70
2022/02/19 05:35:41;;;;;;;7.53;1.40;;;;;;;9.57;37.04;97407.09;5033956;28;20200;-71
2022/02/19 05:38:06;;;;;;;7.43;1.93;;;;;;;9.60;36.62;97401.56;5034713;28;20185;-70
2022/02/19 05:40:32;;;;;;;12.37;1.90;;;;;;;9.56;36.67;97405.44;5035920;28;20188;-71
2022/02/19 05:42:57;;;;;;;7.00;1.67;;;;;;;9.58;37.18;97408.72;5034165;28;20633;-70
2022/02/19 05:45:23;;;;;;;7.63;1.50;;;;;;;9.45;37.15;97411.63;5033153;28;20218;-70
2022/02/19 05:47:48;;;;;;;11.40;1.53;;;;;;;9.42;37.15;97416.34;5034173;28;20186;-69
2022/02/19 05:50:14;;;;;;;9.70;1.60;;;;;;;9.47;37.43;97422.78;5027986;28;20184;-70
2022/02/19 05:52:39;;;;;;;6.10;1.47;;;;;;;9.45;36.96;97421.28;5026075;28;20203;-69
2022/02/19 05:55:05;;;;;;;7.73;1.67;;;;;;;9.60;37.56;97422.47;5033957;28;20175;-70
2022/02/19 05:57:30;;;;;;;8.00;2.07;;;;;;;9.63;36.98;97427.44;5034350;28;20250;-69
2022/02/19 05:59:56;;;;;;;9.83;2.07;;;;;;;9.53;37.08;97426.66;5034177;28;20476;-70
2022/02/19 06:02:21;;;;;;;8.20;1.57;;;;;;;9.61;37.18;97434.59;5034073;28;20185;-69
2022/02/19 06:04:47;;;;;;;8.10;1.70;;;;;;;9.38;36.99;97426.25;5033458;28;20279;-70
2022/02/19 06:07:12;;;;;;;5.20;1.67;;;;;;;9.38;37.14;97432.31;5022520;28;20192;-70
2022/02/19 06:09:38;;;;;;;15.77;2.20;;;;;;;9.44;37.56;97436.16;5014044;28;20181;-70
2022/02/19 06:12:04;;;;;;;13.03;1.50;;;;;;;9.58;37.33;97442.72;5013638;28;20191;-69
2022/02/19 06:14:29;;;;;;;3.77;1.20;;;;;;;9.58;37.19;97445.34;5013525;28;20238;-69
2022/02/19 06:16:54;;;;;;;10.13;2.10;;;;;;;9.56;37.19;97449.06;5013753;28;20431;-70
2022/02/19 06:19:21;;;;;;;3.60;1.30;;;;;;;9.51;37.02;97449.50;5013634;28;20189;-70
2022/02/19 06:21:46;;;;;;;5.93;1.40;;;;;;;9.40;37.53;97457.50;5021335;28;20184;-69
2022/02/19 06:24:11;;;;;;;11.00;2.17;;;;;;;9.36;37.22;97454.34;5030237;28;20513;-70
2022/02/19 06:26:37;;;;;;;5.30;1.50;;;;;;;9.43;37.44;97465.06;5032868;28;20199;-69
2022/02/19 06:29:02;;;;;;;7.87;2.07;;;;;;;9.33;37.60;97471.13;5033473;28;20190;-69
2022/02/19 06:31:28;;;;;;;7.07;1.60;;;;;;;9.47;37.52;97482.97;5019085;28;20184;-68
2022/02/19 06:33:53;;;;;;;3.70;1.37;;;;;;;9.45;37.29;97481.47;5013131;28;20563;-70
2022/02/19 06:36:19;;;;;;;6.87;1.63;;;;;;;9.44;37.70;97487.66;5012885;28;20285;-69
2022/02/19 06:38:46;;;;;;;5.67;1.33;;;;;;;9.52;37.00;97487.78;5013164;28;20186;-70
2022/02/19 06:41:12;;;;;;;7.97;1.43;;;;;;;9.49;37.29;97486.28;5013144;28;20266;-70
2022/02/19 06:43:37;;;;;;;5.83;2.23;;;;;;;9.45;37.33;97497.16;5013138;28;20422;-70
2022/02/19 06:46:03;;;;;;;11.03;1.53;;;;;;;9.47;37.43;97503.91;5012922;28;20232;-70
2022/02/19 06:48:29;;;;;;;8.10;1.40;;;;;;;9.54;37.46;97506.78;5012962;28;20515;-70
2022/02/19 06:50:56;;;;;;;6.33;1.93;;;;;;;9.53;37.56;97510.38;5019303;28;20286;-70
2022/02/19 06:53:22;;;;;;;5.80;1.40;;;;;;;9.60;37.07;97514.06;5024475;28;20230;-70
2022/02/19 06:55:47;;;;;;;9.70;1.83;;;;;;;9.64;37.20;97517.25;5032353;28;20441;-70
2022/02/19 06:58:12;;;;;;;7.10;1.47;;;;;;;9.66;37.47;97531.00;5032806;28;20180;-70
2022/02/19 07:00:38;;;;;;;6.67;2.13;;;;;;;9.76;37.06;97533.63;5032614;28;20171;-70
2022/02/19 07:03:03;;;;;;;11.67;2.00;;;;;;;9.66;36.36;97531.84;5032643;28;20237;-71
2022/02/19 07:05:29;;;;;;;8.00;1.40;;;;;;;9.68;37.10;97545.63;5014506;28;20634;-71
2022/02/19 07:07:54;;;;;;;9.83;1.80;;;;;;;9.74;36.34;97538.19;5032390;28;20185;-70
2022/02/19 07:10:20;;;;;;;10.70;1.50;;;;;;;9.77;36.38;97551.00;5032457;28;20189;-70
2022/02/19 07:12:45;;;;;;;5.17;1.53;;;;;;;9.92;36.10;97557.47;5032633;28;20179;-70
2022/02/19 07:15:11;;;;;;;9.43;2.00;;;;;;;10.10;36.04;97559.34;5013401;28;20325;-70
2022/02/19 07:17:51;;;;;;;13.90;5.00;;;;;;;10.15;35.93;97559.75;5012820;28;20184;-70
2022/02/19 07:20:19;;;;;;;13.17;3.30;;;;;;;10.14;35.74;97565.97;5013468;28;20286;-70
2022/02/19 07:22:44;;;;;;;8.83;2.57;;;;;;;10.10;35.76;97573.28;5023817;28;20526;-70
2022/02/19 07:25:11;;;;;;;6.33;1.80;;;;;;;10.07;35.86;97586.66;5031749;28;20492;-71
2022/02/19 07:27:40;;;;;;;8.40;2.03;;;;;;;10.12;35.70;97578.38;5031926;28;20203;-70
2022/02/19 07:30:07;;;;;;;7.63;1.60;;;;;;;10.15;36.16;97583.34;5032000;28;20848;-70
2022/02/19 07:32:35;;;;;;;6.03;1.87;;;;;;;10.01;36.15;97587.22;5032010;28;20461;-71
2022/02/19 07:35:00;;;;;;;6.53;1.87;;;;;;;10.01;36.15;97589.00;5031608;28;20426;-71
2022/02/19 07:37:26;;;;;;;4.03;1.23;;;;;;;10.05;36.01;97591.19;5032078;28;20425;-70
2022/02/19 07:39:51;;;;;;;5.47;1.60;;;;;;;10.11;36.11;97592.44;5031889;28;20180;-70
2022/02/19 07:42:16;;;;;;;7.30;1.40;;;;;;;10.12;36.11;97596.72;5032049;28;20201;-71
2022/02/19 07:44:42;;;;;;;4.07;1.40;;;;;;;10.09;36.41;97599.59;5013827;28;20548;-71
2022/02/19 07:47:08;;;;;;;11.27;1.90;;;;;;;10.13;36.44;97604.44;5031665;28;20253;-70
2022/02/19 08:00:29;;;;;;;7.50;1.77;;;;;;;10.46;36.06;97630.31;5013844;28;20415;-70
2022/02/19 08:02:55;;;;;;;8.07;1.50;;;;;;;10.57;35.92;97634.59;5031743;28;20507;-70
2022/02/19 08:05:20;;;;;;;5.97;1.40;;;;;;;10.62;35.68;97655.13;5031336;28;20199;-70
2022/02/19 08:07:46;;;;;;;6.27;1.73;;;;;;;10.66;36.13;97652.06;5031317;28;20644;-70
2022/02/19 08:10:11;;;;;;;5.87;1.50;;;;;;;10.66;35.38;97651.25;5031400;28;20193;-70
2022/02/19 08:12:37;;;;;;;5.70;1.80;;;;;;;10.75;35.48;97653.03;5031453;28;20520;-70
2022/02/19 08:15:02;;;;;;;9.17;1.87;;;;;;;10.70;35.32;97657.88;4979824;28;20176;-70
2022/02/19 08:17:29;;;;;;;4.20;1.63;;;;;;;10.78;35.76;97663.22;5011480;28;20183;-70
2022/02/19 08:19:55;;;;;;;12.63;1.80;;;;;;;11.06;35.46;97655.41;5011833;28;20523;-70
2022/02/19 08:22:21;;;;;;;4.87;1.50;;;;;;;11.28;34.97;97663.88;5021537;28;20443;-70
2022/02/19 08:24:46;;;;;;;4.97;1.87;;;;;;;11.42;34.72;97658.13;5030861;28;20192;-70
2022/02/19 08:27:12;;;;;;;6.93;1.40;;;;;;;11.56;34.41;97666.50;5023040;28;20529;-70
2022/02/19 08:29:37;;;;;;;8.40;1.80;;;;;;;11.73;34.20;97665.69;5011832;28;20188;-70
2022/02/19 08:32:03;;;;;;;6.97;1.77;;;;;;;12.07;34.41;97667.69;5011654;28;20263;-70
2022/02/19 08:34:29;;;;;;;13.27;1.57;;;;;;;11.96;33.36;97673.16;5011835;28;20226;-70
2022/02/19 08:36:56;;;;;;;4.00;1.47;;;;;;;12.30;33.60;97667.22;5011644;28;20839;-70
2022/02/19 08:39:25;;;;;;;8.13;1.80;;;;;;;12.67;33.25;97668.81;5011505;28;20238;-70
2022/02/19 08:41:51;;;;;;;8.30;1.60;;;;;;;12.97;32.02;97660.59;5011819;28;20424;-70
2022/02/19 08:44:16;;;;;;;6.53;1.60;;;;;;;13.31;32.01;97667.66;5011484;28;20539;-70
2022/02/19 08:46:42;;;;;;;8.13;1.43;;;;;;;13.19;31.96;97675.84;5011185;28;20447;-70
2022/02/19 08:49:07;;;;;;;4.83;1.37;;;;;;;13.36;31.02;97670.66;5011445;28;20189;-70
2022/02/19 08:51:33;;;;;;;5.87;1.47;;;;;;;13.66;30.92;97657.94;5019321;28;20267;-70
2022/02/19 08:53:58;;;;;;;5.67;1.40;;;;;;;13.81;30.17;97664.22;4997068;28;20172;-69
2022/02/19 08:56:24;;;;;;;5.40;1.20;;;;;;;14.10;30.21;97656.88;5031013;28;20207;-70
2022/02/19 08:58:49;;;;;;;10.43;1.70;;;;;;;14.44;29.65;97655.88;5031239;28;20203;-70
2022/02/19 09:01:15;;;;;;;3.13;1.30;;;;;;;14.73;29.39;97670.38;5030946;28;20179;-69
2022/02/19 09:03:40;;;;;;;6.33;1.43;;;;;;;14.87;28.88;97653.84;5031104;28;20451;-69
2022/02/19 09:06:06;;;;;;;6.53;1.37;;;;;;;14.95;29.15;97660.91;5030708;28;20278;-69
2022/02/19 09:08:31;;;;;;;5.30;1.57;;;;;;;15.23;29.07;97664.97;5030934;28;20188;-70
2022/02/19 09:10:57;;;;;;;4.50;1.43;;;;;;;15.36;27.84;97662.63;5030911;28;20194;-70
2022/02/19 09:13:22;;;;;;;8.60;2.03;;;;;;;15.43;27.68;97658.28;5026963;28;20267;-70
2022/02/19 09:15:49;;;;;;;6.83;1.27;;;;;;;15.32;27.49;97663.94;5010750;28;20196;-70
2022/02/19 09:18:15;;;;;;;11.30;2.20;;;;;;;15.47;28.20;97666.69;5011275;28;20200;-70
2022/02/19 09:20:41;;;;;;;5.13;1.60;;;;;;;16.02;27.57;97661.44;5018260;28;20422;-70
2022/02/19 09:23:06;;;;;;;12.03;1.73;;;;;;;16.22;27.01;97670.53;5015026;28;20446;-70
2022/02/19 09:26:09;;;;;;;6.27;1.70;;;;;;;16.24;26.64;97673.84;5012599;28;20745;-70
2022/02/19 09:29:15;;;;;;;8.43;1.77;;;;;;;16.44;27.17;97673.38;5010389;28;20979;-70
2022/02/19 09:32:21;;;;;;;6.10;1.60;;;;;;;16.67;26.81;97665.38;5026888;28;20512;-71
2022/02/19 09:35:27;;;;;;;12.90;1.70;;;;;;;16.82;26.56;97677.81;5025198;28;20480;-71
2022/02/19 09:38:34;;;;;;;6.03;1.43;;;;;;;17.02;26.72;97673.66;5031920;28;20515;-71
2022/02/19 09:41:16;;;;;;;6.07;1.37;;;;;;;17.20;25.99;97680.41;5030914;28;20446;-72
2022/02/19 09:43:41;;;;;;;7.40;1.53;;;;;;;17.33;25.63;97685.06;5033395;28;20433;-71
2022/02/19 09:46:08;;;;;;;6.73;1.23;;;;;;;17.35;25.81;97689.19;5032959;28;20342;-71
2022/02/19 09:48:34;;;;;;;7.43;1.83;;;;;;;17.37;25.56;97696.94;5025465;28;20239;-72
2022/02/19 09:51:00;;;;;;;11.03;1.70;;;;;;;17.09;25.54;97683.53;5033448;28;20419;-72
2022/02/19 09:53:26;;;;;;;2.70;1.30;;;;;;;17.03;25.71;97685.06;5033147;28;20911;-72
2022/02/19 09:55:52;;;;;;;5.57;1.60;;;;;;;17.29;25.71;97689.91;5032801;28;20200;-72
2022/02/19 09:58:18;;;;;;;7.30;1.50;;;;;;;17.38;26.04;97692.47;4998950;28;20434;-72
2022/02/19 10:00:48;;;;;;;6.43;1.90;;;;;;;17.70;25.53;97703.66;5033227;28;20184;-73
2022/02/19 10:03:22;;;;;;;8.70;1.50;;;;;;;18.04;24.87;97691.63;5033157;28;20212;-74
2022/02/19 10:05:49;;;;;;;5.53;1.70;;;;;;;18.27;24.56;97702.88;5015082;28;20466;-72
2022/02/19 10:08:15;;;;;;;6.77;1.90;;;;;;;17.85;24.62;97709.75;5015150;28;20431;-71
2022/02/19 10:10:47;;;;;;;7.90;1.73;;;;;;;17.85;24.88;97709.75;5032667;28;20895;-70
2022/02/19 10:13:33;;;;;;;8.53;3.13;;;;;;;17.81;24.66;97713.78;5032593;28;20187;-72
2022/02/19 10:15:59;;;;;;;5.17;2.00;;;;;;;17.98;24.56;97718.91;5033783;28;20521;-71
2022/02/19 10:18:29;;;;;;;8.20;1.70;;;;;;;17.97;24.64;97715.41;5032552;28;20427;-71
2022/02/19 10:21:13;;;;;;;7.87;2.73;;;;;;;18.21;24.00;97719.56;5032796;28;20418;-72
2022/02/19 10:23:41;;;;;;;3.97;1.50;;;;;;;18.11;24.02;97719.84;5032583;28;20453;-71
2022/02/19 10:26:08;;;;;;;2.50;1.10;;;;;;;18.35;24.11;97715.19;5032452;28;21000;-71
2022/02/19 10:28:33;;;;;;;5.53;1.53;;;;;;;18.64;24.04;97717.91;5032104;28;20521;-70
2022/02/19 10:31:11;;;;;;;10.10;1.83;;;;;;;18.85;23.48;97715.22;5032114;28;20509;-72
2022/02/19 10:33:36;;;;;;;4.83;1.23;;;;;;;18.51;22.88;97719.44;5014911;28;20194;-70
2022/02/19 10:36:03;;;;;;;6.70;1.50;;;;;;;17.79;23.94;97729.88;5032081;28;20446;-70
2022/02/19 10:38:28;;;;;;;8.77;1.43;;;;;;;17.95;24.08;97712.94;5032225;28;20242;-71
2022/02/19 10:40:57;;;;;;;7.67;1.77;;;;;;;18.12;23.56;97723.34;5032044;28;20505;-69
2022/02/19 10:43:29;;;;;;;8.20;1.43;;;;;;;18.13;23.72;97714.38;5031000;28;20180;-71
2022/02/19 10:46:04;;;;;;;2.93;1.10;;;;;;;18.02;23.49;97717.53;5031669;28;20462;-71
2022/02/19 10:48:36;;;;;;;8.67;1.67;;;;;;;18.21;23.97;97716.91;5031889;28;20479;-70
2022/02/19 10:51:12;;;;;;;3.60;1.17;;;;;;;18.21;24.26;97702.84;5032503;28;20418;-70
2022/02/19 10:53:39;;;;;;;3.90;1.63;;;;;;;18.58;23.38;97704.38;5024744;28;20430;-71
2022/02/19 10:56:18;;;;;;;8.27;1.70;;;;;;;18.93;22.94;97698.31;5014059;28;20461;-71
2022/02/19 10:58:58;;;;;;;3.30;1.23;;;;;;;18.84;22.58;97700.28;5025442;28;20514;-71
2022/02/19 11:01:24;;;;;;;6.97;1.30;;;;;;;19.13;22.50;97697.66;5032046;28;20437;-71
2022/02/19 11:03:49;;;;;;;8.90;1.60;;;;;;;19.09;22.07;97699.06;5031937;28;21120;-71
2022/02/19 11:06:15;;;;;;;2.80;1.13;;;;;;;19.01;22.21;97713.31;5031222;28;20684;-71
2022/02/19 11:08:47;;;;;;;3.30;1.10;;;;;;;18.98;21.88;97705.72;5032092;28;20179;-70
2022/02/19 11:11:12;;;;;;;5.73;1.57;;;;;;;18.94;21.72;97705.31;5031056;28;20448;-70
2022/02/19 11:13:39;;;;;;;3.93;1.20;;;;;;;19.02;21.28;97709.66;5031740;28;20509;-71
2022/02/19 11:16:05;;;;;;;4.37;1.30;;;;;;;19.09;21.77;97710.50;5031246;28;20207;-70
2022/02/19 11:18:34;;;;;;;2.80;1.50;;;;;;;19.42;22.26;97709.84;5031458;28;20418;-71
2022/02/19 11:21:04;;;;;;;8.80;1.40;;;;;;;19.24;21.20;97710.38;5031726;28;20203;-70
2022/02/19 11:23:32;;;;;;;10.17;1.80;;;;;;;19.01;21.52;97708.00;5013981;28;20414;-70
2022/02/19 11:25:58;;;;;;;4.60;1.47;;;;;;;19.00;21.81;97711.66;5013389;28;20466;-69
2022/02/19 11:28:26;;;;;;;14.87;1.67;;;;;;;19.18;21.76;97701.34;5031434;28;20826;-70
2022/02/19 11:30:55;;;;;;;5.50;1.23;;;;;;;19.36;22.13;97702.69;5031418;28;20465;-70
2022/02/19 11:33:21;;;;;;;4.43;1.77;;;;;;;18.65;21.83;97703.63;5013643;28;20930;-69
2022/02/19 11:35:47;;;;;;;3.33;1.50;;;;;;;18.76;21.81;97705.75;5013218;28;20438;-69
2022/02/19 11:38:35;;;;;;;5.33;1.37;;;;;;;18.78;21.74;97701.06;5031114;28;20433;-70
2022/02/19 11:41:06;;;;;;;5.53;1.57;;;;;;;18.52;22.07;97702.50;5030924;28;20431;-70
2022/02/19 11:43:47;;;;;;;3.97;1.37;;;;;;;18.04;22.62;97696.94;5030186;28;20434;-70